createdAt,value
2022-09-20T00:02:51.075Z,9.01
2022-09-20T00:05:54.040Z,9.04
2022-09-20T00:08:57.325Z,9.05
2022-09-20T00:12:00.421Z,9.03
2022-09-20T00:15:04.089Z,8.99
2022-09-20T00:18:12.505Z,8.92
2022-09-20T00:21:17.711Z,8.92
2022-09-20T00:24:20.678Z,8.89
2022-09-20T00:27:27.644Z,8.91
2022-09-20T00:30:31.851Z,8.98
2022-09-20T00:33:53.643Z,8.99
2022-09-20T00:36:56.509Z,8.99
2022-09-20T00:39:59.437Z,9.00
2022-09-20T00:43:03.922Z,8.99
2022-09-20T00:46:42.783Z,8.99
2022-09-20T00:49:46.775Z,9.00
2022-09-20T00:52:55.067Z,9.02
2022-09-20T00:56:16.665Z,9.01
2022-09-20T00:59:31.404Z,8.99
2022-09-20T01:02:39.793Z,8.97
2022-09-20T01:05:44.717Z,8.96
2022-09-20T01:08:51.701Z,8.96
2022-09-20T01:11:58.503Z,8.91
2022-09-20T01:15:05.315Z,8.90
2022-09-20T01:18:10.385Z,8.91
2022-09-20T01:21:15.543Z,8.87
2022-09-20T01:24:28.545Z,8.89
2022-09-20T01:27:47.273Z,8.91
2022-09-20T01:31:03.653Z,8.95
2022-09-20T01:34:19.315Z,8.89
2022-09-20T01:37:28.578Z,8.83
2022-09-20T01:41:07.118Z,8.81
2022-09-20T01:44:14.185Z,8.86
2022-09-20T01:47:19.296Z,8.92
2022-09-20T01:50:31.490Z,8.88
2022-09-20T01:53:40.498Z,8.88
2022-09-20T01:56:53.601Z,8.91
2022-09-20T02:00:05.681Z,8.89
2022-09-20T02:03:47.026Z,8.88
2022-09-20T02:07:34.620Z,8.89
2022-09-20T02:10:57.477Z,8.89
2022-09-20T02:14:25.298Z,8.86
2022-09-20T02:17:43.504Z,8.86
2022-09-20T02:20:49.547Z,8.86
2022-09-20T02:24:14.522Z,8.86
2022-09-20T02:27:32.025Z,8.86
2022-09-20T02:31:02.417Z,8.82
2022-09-20T02:34:38.650Z,8.79
2022-09-20T02:38:00.860Z,8.83
2022-09-20T02:41:31.155Z,8.87
2022-09-20T02:44:46.918Z,8.88
2022-09-20T02:47:50.302Z,8.86
2022-09-20T02:51:06.476Z,8.88
2022-09-20T02:54:34.620Z,8.90
2022-09-20T02:57:50.998Z,8.87
2022-09-20T03:01:10.281Z,8.84
2022-09-20T03:04:16.076Z,8.82
2022-09-20T03:07:31.234Z,8.79
2022-09-20T03:10:36.969Z,8.78
2022-09-20T03:14:11.043Z,8.80
2022-09-20T03:17:27.734Z,8.78
2022-09-20T03:20:39.400Z,8.77
2022-09-20T03:23:51.384Z,8.74
2022-09-20T03:27:08.170Z,8.72
2022-09-20T03:30:41.767Z,8.73
2022-09-20T03:34:36.488Z,8.73
2022-09-20T03:38:17.222Z,8.75
2022-09-20T03:41:51.610Z,8.79
2022-09-20T03:45:21.295Z,8.83
2022-09-20T03:48:39.723Z,8.83
2022-09-20T03:52:20.652Z,8.80
2022-09-20T03:56:01.392Z,8.79
2022-09-20T03:59:18.579Z,8.78
2022-09-20T04:02:40.166Z,8.80
2022-09-20T04:05:55.740Z,8.85
2022-09-20T04:09:07.918Z,8.85
2022-09-20T04:12:42.818Z,8.85
2022-09-20T04:16:11.093Z,8.83
2022-09-20T04:19:42.591Z,8.81
2022-09-20T04:22:51.569Z,8.80
2022-09-20T04:25:54.572Z,8.76
2022-09-20T04:29:14.577Z,8.76
2022-09-20T04:32:42.486Z,8.77
2022-09-20T04:36:19.900Z,8.72
2022-09-20T04:39:35.195Z,8.73
2022-09-20T04:42:56.474Z,8.74
2022-09-20T04:46:29.737Z,8.78
2022-09-20T04:49:34.305Z,8.83
2022-09-20T04:52:55.943Z,8.79
2022-09-20T04:56:10.080Z,8.77
2022-09-20T04:59:55.713Z,8.77
2022-09-20T05:03:46.781Z,8.83
2022-09-20T05:06:59.479Z,8.83
2022-09-20T05:10:24.761Z,8.83
2022-09-20T05:13:37.248Z,8.86
2022-09-20T05:16:58.508Z,8.81
2022-09-20T05:20:13.890Z,8.77
2022-09-20T05:23:51.248Z,8.75
2022-09-20T05:27:32.088Z,8.76
2022-09-20T05:30:49.586Z,8.79
2022-09-20T05:34:14.461Z,8.86
2022-09-20T05:37:19.542Z,8.92
2022-09-20T05:40:37.472Z,8.96
2022-09-20T05:44:18.098Z,8.96
2022-09-20T05:47:50.118Z,8.96
2022-09-20T05:51:04.173Z,8.95
2022-09-20T05:54:25.846Z,8.97
2022-09-20T05:57:44.108Z,9.02
2022-09-20T06:00:59.625Z,9.06
2022-09-20T06:04:34.251Z,9.07
2022-09-20T06:08:00.452Z,9.06
2022-09-20T06:11:33.205Z,9.03
2022-09-20T06:14:48.253Z,9.00
2022-09-20T06:18:11.181Z,9.02
2022-09-20T06:21:31.554Z,8.99
2022-09-20T06:24:45.170Z,9.02
2022-09-20T06:27:55.605Z,9.05
2022-09-20T06:30:59.026Z,9.05
2022-09-20T06:34:10.411Z,9.01
2022-09-20T06:37:54.052Z,8.94
2022-09-20T06:41:17.594Z,8.94
2022-09-20T06:44:20.386Z,8.94
2022-09-20T06:47:23.637Z,8.94
2022-09-20T06:50:27.055Z,8.93
2022-09-20T06:53:32.887Z,8.94
2022-09-20T06:56:37.057Z,9.01
2022-09-20T06:59:40.133Z,9.07
2022-09-20T07:02:44.231Z,9.09
2022-09-20T07:05:47.407Z,9.02
2022-09-20T07:08:50.382Z,9.00
2022-09-20T07:11:53.554Z,9.02
2022-09-20T07:14:56.734Z,9.02
2022-09-20T07:18:00.831Z,9.00
2022-09-20T07:21:06.570Z,9.00
2022-09-20T07:24:09.550Z,9.05
2022-09-20T07:27:12.920Z,9.08
2022-09-20T07:30:16.301Z,9.05
2022-09-20T07:33:21.935Z,9.05
2022-09-20T07:36:25.110Z,9.08
2022-09-20T07:39:28.390Z,9.12
2022-09-20T07:42:32.184Z,9.15
2022-09-20T07:45:38.844Z,9.18
2022-09-20T07:48:41.811Z,9.20
2022-09-20T07:51:45.496Z,9.23
2022-09-20T07:54:50.214Z,9.22
2022-09-20T07:57:54.819Z,9.22
2022-09-20T08:00:59.993Z,9.22
2022-09-20T08:04:05.167Z,9.26
2022-09-20T08:07:08.134Z,9.33
2022-09-20T08:10:11.322Z,9.41
2022-09-20T08:16:40.022Z,9.53
2022-09-20T08:19:43.746Z,9.65
2022-09-20T08:23:06.408Z,9.63
2022-09-20T08:26:14.035Z,9.64
2022-09-20T08:29:17.036Z,9.68
2022-09-20T08:32:19.803Z,9.70
2022-09-20T08:35:22.992Z,9.69
2022-09-20T08:42:06.047Z,9.74
2022-09-20T08:48:41.281Z,9.90
2022-09-20T08:51:48.587Z,10.05
2022-09-20T08:54:53.222Z,10.13
2022-09-20T08:57:58.349Z,10.17
2022-09-20T09:01:01.800Z,10.30
2022-09-20T09:04:21.566Z,10.38
2022-09-20T09:07:25.719Z,10.39
2022-09-20T09:10:42.505Z,10.36
2022-09-20T09:13:54.385Z,10.35
2022-09-20T09:16:57.530Z,10.35
2022-09-20T09:20:16.293Z,10.38
2022-09-20T09:23:27.859Z,10.37
2022-09-20T09:26:40.327Z,10.31
2022-09-20T09:29:55.194Z,10.31
2022-09-20T09:33:17.401Z,10.36
2022-09-20T09:36:26.148Z,10.42
2022-09-20T09:39:31.889Z,10.53
2022-09-20T09:42:36.663Z,10.71
2022-09-20T09:45:40.398Z,10.75
2022-09-20T09:48:43.623Z,10.76
2022-09-20T09:52:16.166Z,10.79
2022-09-20T09:55:19.347Z,10.93
2022-09-20T09:58:34.808Z,11.03
2022-09-20T10:01:49.845Z,11.11
2022-09-20T10:05:04.899Z,11.17
2022-09-20T10:08:22.913Z,11.21
2022-09-20T10:11:59.076Z,11.27
2022-09-20T10:15:17.670Z,11.20
2022-09-20T10:18:42.646Z,11.20
2022-09-20T10:22:19.795Z,11.21
2022-09-20T10:25:44.670Z,11.32
2022-09-20T10:29:08.751Z,11.35
2022-09-20T10:32:50.269Z,11.48
2022-09-20T10:36:08.592Z,11.59
2022-09-20T10:39:24.553Z,11.58
2022-09-20T10:43:17.678Z,11.60
2022-09-20T10:46:34.133Z,11.64
2022-09-20T10:49:53.709Z,11.76
2022-09-20T10:53:18.477Z,11.77
2022-09-20T10:56:37.209Z,11.74
2022-09-20T11:00:00.161Z,11.76
2022-09-20T11:03:40.155Z,11.86
2022-09-20T11:06:43.743Z,11.98
2022-09-20T11:10:01.858Z,11.99
2022-09-20T11:13:35.134Z,12.01
2022-09-20T11:17:00.610Z,12.09
2022-09-20T11:20:28.041Z,12.20
2022-09-20T11:23:51.163Z,12.33
2022-09-20T11:27:13.178Z,12.43
2022-09-20T11:30:19.014Z,12.46
2022-09-20T11:33:31.804Z,12.50
2022-09-20T11:36:45.833Z,12.60
2022-09-20T11:40:02.043Z,12.73
2022-09-20T11:43:08.861Z,12.89
2022-09-20T11:46:19.041Z,13.02
2022-09-20T11:49:43.054Z,13.16
2022-09-20T11:53:01.371Z,13.24
2022-09-20T11:56:21.804Z,13.21
2022-09-20T11:59:25.327Z,13.24
2022-09-20T12:02:40.712Z,13.32
2022-09-20T12:05:58.210Z,13.35
2022-09-20T12:09:23.055Z,13.37
2022-09-20T12:12:36.059Z,13.38
2022-09-20T12:15:40.566Z,13.40
2022-09-20T12:19:08.129Z,13.52
2022-09-20T12:22:41.773Z,13.66
2022-09-20T12:26:01.298Z,13.77
2022-09-20T12:29:27.111Z,13.83
2022-09-20T12:32:39.018Z,13.83
2022-09-20T12:36:00.145Z,13.83
2022-09-20T12:39:10.235Z,13.84
2022-09-20T12:42:13.077Z,13.81
2022-09-20T12:45:19.044Z,13.86
2022-09-20T12:48:22.624Z,13.93
2022-09-20T12:51:52.091Z,13.99
2022-09-20T12:54:58.132Z,14.01
2022-09-20T12:58:19.819Z,13.99
2022-09-20T13:01:22.752Z,14.01
2022-09-20T13:04:56.998Z,14.04
2022-09-20T13:08:10.083Z,14.01
2022-09-20T13:11:18.701Z,14.03
2022-09-20T13:14:29.534Z,14.13
2022-09-20T13:17:33.848Z,14.27
2022-09-20T13:20:37.423Z,14.51
2022-09-20T13:23:54.110Z,14.62
2022-09-20T13:27:06.698Z,14.63
2022-09-20T13:30:15.507Z,14.55
2022-09-20T13:33:24.527Z,14.57
2022-09-20T13:36:30.260Z,14.66
2022-09-20T13:39:36.439Z,14.73
2022-09-20T13:42:39.568Z,14.73
2022-09-20T13:45:44.729Z,14.62
2022-09-20T13:48:48.992Z,14.46
2022-09-20T13:51:52.383Z,14.39
2022-09-20T13:54:58.195Z,14.45
2022-09-20T13:58:04.560Z,14.59
2022-09-20T14:01:22.337Z,14.67
2022-09-20T14:04:31.993Z,14.74
2022-09-20T14:07:37.111Z,14.86
2022-09-20T14:10:43.982Z,14.78
2022-09-20T14:13:50.905Z,14.52
2022-09-20T14:16:57.576Z,14.29
2022-09-20T14:20:01.076Z,14.15
2022-09-20T14:23:57.532Z,14.00
2022-09-20T14:27:04.847Z,13.88
2022-09-20T14:30:38.825Z,13.77
2022-09-20T14:33:45.580Z,13.58
2022-09-20T14:36:50.603Z,13.38
2022-09-20T14:39:56.947Z,13.12
2022-09-20T14:43:03.879Z,12.87
2022-09-20T14:46:16.507Z,12.67
2022-09-20T14:49:33.249Z,12.43
2022-09-20T14:52:39.190Z,12.15
2022-09-20T14:56:05.333Z,11.98
2022-09-20T14:59:17.407Z,11.80
2022-09-20T15:02:21.645Z,11.64
2022-09-20T15:05:27.225Z,11.50
2022-09-20T15:08:31.139Z,11.38
2022-09-20T15:11:34.010Z,11.29
2022-09-20T15:14:38.088Z,11.25
2022-09-20T15:17:46.193Z,11.26
2022-09-20T15:20:50.938Z,11.34
2022-09-20T15:23:54.288Z,11.41
2022-09-20T15:26:58.484Z,11.44
2022-09-20T15:30:01.499Z,11.49
2022-09-20T15:33:04.540Z,11.53
2022-09-20T15:36:08.629Z,11.61
2022-09-20T15:39:12.434Z,11.77
2022-09-20T15:42:15.802Z,11.93
2022-09-20T15:45:20.059Z,12.05
2022-09-20T15:48:25.331Z,12.17
2022-09-20T15:51:30.769Z,12.20
2022-09-20T15:54:33.935Z,12.23
2022-09-20T15:57:37.019Z,12.27
2022-09-20T16:00:41.348Z,12.25
2022-09-20T16:03:46.309Z,12.25
2022-09-20T16:06:52.241Z,12.23
2022-09-20T16:09:56.855Z,12.21
2022-09-20T16:12:59.863Z,12.20
2022-09-20T16:16:04.633Z,12.19
2022-09-20T16:19:23.263Z,12.19
2022-09-20T16:22:27.747Z,12.23
2022-09-20T16:25:31.362Z,12.25
2022-09-20T16:28:34.935Z,12.23
2022-09-20T16:31:42.758Z,12.18
2022-09-20T16:34:46.625Z,12.12
2022-09-20T16:37:50.750Z,12.11
2022-09-20T16:40:56.478Z,12.08
2022-09-20T16:44:01.250Z,12.02
2022-09-20T16:47:08.362Z,11.98
2022-09-20T16:50:12.986Z,11.95
2022-09-20T16:53:17.748Z,11.91
2022-09-20T16:56:24.292Z,11.89
2022-09-20T16:59:28.235Z,11.83
2022-09-20T17:02:31.932Z,11.74
2022-09-20T17:05:35.035Z,11.72
2022-09-20T17:08:40.797Z,11.70
2022-09-20T17:11:47.798Z,11.68
2022-09-20T17:14:51.729Z,11.64
2022-09-20T17:17:55.999Z,11.55
2022-09-20T17:21:08.795Z,11.52
2022-09-20T17:24:15.140Z,11.53
2022-09-20T17:27:19.449Z,11.51
2022-09-20T17:30:24.275Z,11.51
2022-09-20T17:33:30.208Z,11.50
2022-09-20T17:36:39.884Z,11.47
2022-09-20T17:39:42.896Z,11.44
2022-09-20T17:42:48.061Z,11.40
2022-09-20T17:45:51.091Z,11.34
2022-09-20T17:48:56.227Z,11.27
2022-09-20T17:51:59.297Z,11.24
2022-09-20T17:55:02.468Z,11.24
2022-09-20T17:58:05.644Z,11.24
2022-09-20T18:01:14.146Z,11.20
2022-09-20T18:04:17.214Z,11.19
2022-09-20T18:07:20.309Z,11.13
2022-09-20T18:10:29.222Z,11.16
2022-09-20T18:13:32.989Z,11.16
2022-09-20T18:16:37.472Z,11.14
2022-09-20T18:19:41.490Z,11.08
2022-09-20T18:22:48.249Z,11.06
2022-09-20T18:26:09.952Z,11.06
2022-09-20T18:29:17.077Z,11.02
2022-09-20T18:32:20.090Z,10.96
2022-09-20T18:35:23.164Z,10.91
2022-09-20T18:38:30.542Z,10.90
2022-09-20T18:41:36.067Z,10.89
2022-09-20T18:44:44.109Z,10.88
2022-09-20T18:47:47.332Z,10.88
2022-09-20T18:51:01.466Z,10.84
2022-09-20T18:54:04.771Z,10.83
2022-09-20T18:57:10.708Z,10.87
2022-09-20T19:00:15.517Z,10.89
2022-09-20T19:03:28.826Z,10.84
2022-09-20T19:06:49.802Z,10.79
2022-09-20T19:10:13.258Z,10.78
2022-09-20T19:14:01.145Z,10.74
2022-09-20T19:17:05.131Z,10.68
2022-09-20T19:20:29.590Z,10.64
2022-09-20T19:24:03.145Z,10.59
2022-09-20T19:27:12.886Z,10.55
2022-09-20T19:30:17.828Z,10.49
2022-09-20T19:33:21.299Z,10.43
2022-09-20T19:36:30.501Z,10.40
2022-09-20T19:39:57.460Z,10.38
2022-09-20T19:43:17.802Z,10.39
2022-09-20T19:46:36.758Z,10.38
2022-09-20T19:49:54.135Z,10.35
2022-09-20T19:53:06.895Z,10.32
2022-09-20T19:56:25.470Z,10.37
2022-09-20T19:59:29.446Z,10.38
2022-09-20T20:02:33.483Z,10.36
2022-09-20T20:05:37.031Z,10.32
2022-09-20T20:08:54.809Z,10.28
2022-09-20T20:11:57.810Z,10.29
2022-09-20T20:15:22.037Z,10.30
2022-09-20T20:18:44.243Z,10.25
2022-09-20T20:22:32.384Z,10.18
2022-09-20T20:26:03.498Z,10.12
2022-09-20T20:29:06.462Z,10.10
2022-09-20T20:32:10.264Z,10.09
2022-09-20T20:35:15.273Z,10.02
2022-09-20T20:38:18.145Z,9.97
2022-09-20T20:41:22.266Z,9.92
2022-09-20T20:44:26.440Z,9.87
2022-09-20T20:47:30.333Z,9.83
2022-09-20T20:50:34.431Z,9.79
2022-09-20T20:53:40.173Z,9.76
2022-09-20T20:56:43.142Z,9.74
2022-09-20T20:59:46.011Z,9.71
2022-09-20T21:02:49.318Z,9.69
2022-09-20T21:05:55.431Z,9.67
2022-09-20T21:08:59.120Z,9.63
2022-09-20T21:12:03.432Z,9.59
2022-09-20T21:15:07.214Z,9.59
2022-09-20T21:18:10.617Z,9.61
2022-09-20T21:21:36.044Z,9.60
2022-09-20T21:24:45.713Z,9.58
2022-09-20T21:27:49.607Z,9.56
2022-09-20T21:30:59.416Z,9.57
2022-09-20T21:34:06.781Z,9.57
2022-09-20T21:37:10.899Z,9.55
2022-09-20T21:40:14.054Z,9.54
2022-09-20T21:43:18.068Z,9.54
2022-09-20T21:46:33.497Z,9.54
2022-09-20T21:49:36.600Z,9.54
2022-09-20T21:52:39.470Z,9.55
2022-09-20T21:55:42.443Z,9.51
2022-09-20T21:58:46.354Z,9.46
2022-09-20T22:01:49.750Z,9.49
2022-09-20T22:04:53.925Z,9.49
2022-09-20T22:07:56.924Z,9.48
2022-09-20T22:10:59.967Z,9.44
2022-09-20T22:14:02.833Z,9.40
2022-09-20T22:17:05.909Z,9.38
2022-09-20T22:20:09.902Z,9.33
2022-09-20T22:23:13.089Z,9.30
2022-09-20T22:26:19.376Z,9.28
2022-09-20T22:29:22.409Z,9.25
2022-09-20T22:32:25.273Z,9.20
2022-09-20T22:35:28.753Z,9.14
2022-09-20T22:38:31.831Z,9.10
2022-09-20T22:41:37.271Z,9.09
2022-09-20T22:44:40.851Z,9.05
2022-09-20T22:47:44.230Z,9.03
2022-09-20T22:50:47.198Z,8.97
2022-09-20T22:53:52.459Z,8.91
2022-09-20T22:56:55.802Z,8.84
2022-09-20T22:59:58.884Z,8.82
2022-09-20T23:04:08.082Z,8.83
2022-09-20T23:07:11.447Z,8.87
2022-09-20T23:10:14.517Z,8.88
2022-09-20T23:13:53.310Z,8.84
2022-09-20T23:16:56.303Z,8.83
2022-09-20T23:19:59.317Z,8.76
2022-09-20T23:23:02.222Z,8.68
2022-09-20T23:26:08.146Z,8.67
2022-09-20T23:29:15.381Z,8.68
2022-09-20T23:32:18.405Z,8.72
2022-09-20T23:35:22.566Z,8.71
2022-09-20T23:38:26.700Z,8.74
2022-09-20T23:41:30.288Z,8.73
2022-09-20T23:44:41.756Z,8.68
2022-09-20T23:47:48.111Z,8.66
2022-09-20T23:50:51.176Z,8.63
2022-09-20T23:53:54.761Z,8.61
2022-09-20T23:56:57.736Z,8.61
